Bevington, IA (50033)

10:10 AM CDT on May 30, 2015 (GMT -0500)
N.E. Madison Co. Cumming, IA | | Change Station
CLOSE
Current Station
Personal Weather Station
Location: Cumming, IA
Elevation: 980 ft
Nearby Weather Stations

Elev 980 ft 41.45 °N, 93.80 °W | Updated 10 minutes ago

Overcast
Overcast
55.2 °F
Feels Like 55.2 °F
N
6.0
Wind Variable Wind from NNW
Gusts 15.0 mph

Today
High -- | Low -- °F
--% Chance of Precip.
Yesterday
High -- | Low -- °F
Precip. -- in
5:45 AM 8:40 PM
Waxing Gibbous, 90% visible
Pressure 30.08 in
Visibility 10.0 miles
Clouds Overcast 1200 ft
Dew Point 53 °F
Humidity 93%
Rainfall 0.14 in
Snow Depth Not available.
UV 2 out of 12
Pollen 7.60 out of 12
Air Quality Not available.
Flu Activity No Activity
METAR KDSM 301454Z 36014G18KT 10SM OVC012 14/11 A3009 RMK AO2 SLP185 60000 T01440111 53016

More Conditions Fewer Conditions

Pressure 30.08 in
Visibility 10.0 miles
Clouds Overcast 1200 ft
Dew Point 53 °F
Humidity 93%
Rainfall 0.14 in
Snow Depth Not available.
UV 2 out of 12
Pollen 7.60 out of 12
Air Quality Not available.
Flu Activity No Activity
METAR KDSM 301454Z 36014G18KT 10SM OVC012 14/11 A3009 RMK AO2 SLP185 60000 T01440111 53016

More Conditions Fewer Conditions

10-Day Weather Forecast

Almanac

Astronomy

May. 30, 2015 Rise Set
Actual Time
Civil Twilight
Nautical Twilight
Astronomical Twilight
Moon
Length of Visible Light
Length of Day
Tomorrow will be .
, % of the Moon is Illuminated

Today's Extremes

State Highs State Lows

Community

WunderPhotos

Upload Photos

1,825,542 photos uploaded!

WunderBlogs® & News

Nearby

Air Quality

  Air Quality AQ Index Pollutant
Not available.

Snow Depth

Station Depth Elevation

Earthquake Activity

City Distance Mag. Time & Date
Minimum magnitude displayed is 2.5.

Coastal Water Temperatures

Place Temperature

Stations

Nearby Weather Stations

Station Location Temp. Windchill Dew Point Humidity Wind Precip. Elev Updated Type